Details From LEMD - Madrid - Barajas
To GCHI - Hierro
Flight Number -
Tags Generated
Created
Modified
Stats Distance 1,041 nm / 1,928 km
Max Altitude 0 ft / 0 m
Waypoints 3
Social Downloads 2
Likes 0
Share VATSIM

Download

Looking for another format? Having issues loading an existing format? Contact us
Advertisement - Login to hide

Notes

Generated

Route

LEMD ERTIS GCHI

ID Type Via Altitude Latitude Longitude Leg Dist Tot Dist Heading (true) Name
O LEMD APT - 0 ft / 0 m 40.53262˚ -3.55938˚ - 0 nm - -
ERTIS FIX - 0 ft / 0 m 37.41667˚ -7.61472˚ 266 nm 266 nm 227° / 224° -
O GCHI APT - 0 ft / 0 m 27.81985˚ -17.88997˚ 775 nm 1041 nm 225° / 219° -

Altitude Profile

Advertisement - Login to hide

Weather


0- 5 10 15 20 25 30 35+ Temperature / ° C

Clouds and Precipitation
Forecast for 2017-12-18 18:00 UTC. Updated 2 hours ago

Ground ~20,000 ft ~40,000 ft Winds

LEMD

Details ICAO LEMD (MAD)
Name Barajas
Region Spain
Timezone Europe/Madrid (UTC+1.0)
Stats Elevation 1,998 ft / 609 m (AMSL)
Location 40.490447° -3.560614°
Runways 5
Magnetic Variation 0.685° W

METAR

LEMD 181700Z 27004KT 220V330 CAVOK 11/M01 Q1027 NOSIG

Decode

TAF

TAF LEMD 181100Z 1812/1918 VRB05KT 9999 FEW035 TX12/1915Z TNM01/1907Z PROB30 TEMPO 1820/1906 BKN025 TEMPO 1905/1913 02010KT

Decode

Departure Runways

ID Width Length Bearing (true) Bearing (mag) Surface Threshold Offset Overrun Length
14L 197 ft / 60 m 11,494 ft / 3,504 m 142.32° 143.00° Asphalt 0 ft / 0 m 820 ft / 250 m
14R 197 ft / 60 m 13,454 ft / 4,101 m 142.30° 142.98° Asphalt 0 ft / 0 m 427 ft / 130 m
18C 174 ft / 53 m 10,952 ft / 3,338 m 179.60° 180.28° Concrete 0 ft / 0 m 0 ft / 0 m
18L 197 ft / 60 m 11,494 ft / 3,503 m 179.76° 180.44° Asphalt 1,640 ft / 500 m 984 ft / 300 m
18R 197 ft / 60 m 14,282 ft / 4,353 m 179.76° 180.44° Asphalt 3,232 ft / 985 m 853 ft / 260 m
32L 197 ft / 60 m 13,454 ft / 4,101 m 322.32° 323.00° Asphalt 3,445 ft / 1,050 m 328 ft / 100 m
32R 197 ft / 60 m 11,494 ft / 3,504 m 322.33° 323.01° Asphalt 1,640 ft / 500 m 984 ft / 300 m
36C 174 ft / 53 m 10,952 ft / 3,338 m 359.60° 0.28° Concrete 0 ft / 0 m 0 ft / 0 m
36L 197 ft / 60 m 14,282 ft / 4,353 m 359.76° 0.44° Asphalt 0 ft / 0 m 0 ft / 0 m
36R 197 ft / 60 m 11,494 ft / 3,503 m 359.76° 0.44° Asphalt 0 ft / 0 m 295 ft / 90 m

GCHI

Details ICAO GCHI (VDE)
Name Hierro
Region Canary Islands
Timezone Atlantic/Canary (UTC+0.0)
Stats Elevation 337 ft / 103 m (AMSL)
Location 27.814848° -17.887052°
Runways 1
Magnetic Variation 5.627° W

METAR

GCHI 181700Z 05017KT 9999 FEW022 20/15 Q1023

Decode

TAF

TAF GCHI 181400Z 1815/1915 05018KT 9999 FEW025 TX21/1913Z TN19/1906Z

Decode

Destination Runways

ID Width Length Bearing (true) Bearing (mag) Surface Threshold Offset Overrun Length
16 98 ft / 30 m 4,110 ft / 1,253 m 152.71° 158.34° Asphalt 0 ft / 0 m 112 ft / 34 m
34 98 ft / 30 m 4,110 ft / 1,253 m 332.71° 338.34° Asphalt 0 ft / 0 m 105 ft / 32 m

Popular Alternatives